NCAR-RAP Real-Time Weather Data

Output produced by METARs form (20 February 2019  17:44 UTC)
found at http://weather.rap.ucar.edu/surface/
 
RJSN 201200Z 27013KT 9999 -SHRA FEW020 BKN040 BKN070 07/05 Q1016
RJSN 201100Z 27018KT 9999 FEW015 SCT020 BKN035 07/04 Q1015
RJSN 201032Z 27015G25KT 8000 -SHRA FEW015 SCT020 BKN030 07/05 Q1015 RMK 1CU015 4CU020 6CU030 A3000
RJSN 201000Z 26013KT 9999 -SHRA FEW020 SCT030 BKN040 07/05 Q1015
RJSN 200940Z 26015KT 9999 -SHRA FEW015 SCT020 BKN030 08/05 Q1015 RMK 1CU015 3CU020 6CU030 A3000
RJSN 200900Z 24005KT 200V260 9999 -SHRA FEW020 SCT030 BKN040 08/05 Q1015
RJSN 200800Z 27009KT 9999 -SHRA FEW015 SCT020 BKN030 08/05 Q1015
RJSN 200700Z 26015KT 9999 FEW020 SCT030 BKN040 09/04 Q1014
RJSN 200600Z 27010KT 9999 FEW020 SCT030 BKN040 09/06 Q1014
RJSN 200500Z 26015KT 9999 -SHRA FEW015 SCT020 BKN030 10/06 Q1014
RJSN 200400Z 24010KT 9999 -SHRA FEW015 SCT020 BKN030 10/08 Q1013
RJSN 200300Z 25007KT 220V280 9999 FEW020 BKN030 BKN040 11/08 Q1014
RJSN 200200Z 26008KT 9999 FEW020 BKN030 BKN040 11/09 Q1014
RJSN 200100Z 24007KT 9999 FEW020 BKN030 BKN040 11/08 Q1014
RJSN 200000Z 23008KT 9999 FEW010 BKN040 BKN050 11/08 Q1014
RJSN 192300Z 23007KT 9999 FEW020 SCT040 BKN050 11/09 Q1013
RJSN 192200Z 24009KT 9999 FEW007 SCT030 BKN050 11/10 Q1012
RJSN 192110Z 23007KT 9999 -SHRA FEW007 SCT030 BKN050 11/11 Q1012 RMK 1ST007 4CU030 6CU050 A2990
RJSN 191200Z 12003KT 4000 -RA BR FEW030 BKN050 06/06 Q1010
RJSN 191140Z VRB02KT 6000 -RA FEW040 BKN050 OVC070 06/06 Q1011 RMK 1SC040 6SC050 8AS070 A2985
RJSN 191105Z 04003KT 300V080 4000 RA BR FEW030 BKN040 OVC070 07/06 Q1011 RMK 2SC030 6SC040 8AS070 A2986
RJSN 191100Z 03003KT 300V080 5000 -RA BR FEW030 BKN040 OVC070 07/06 Q1011
RJSN 191000Z 04001KT 6000 -RA FEW040 BKN050 OVC080 06/06 Q1011
RJSN 190900Z 07003KT 8000 -RA FEW050 BKN060 OVC090 06/06 Q1013
RJSN 190800Z 10004KT 5000 -RA BR FEW040 BKN050 OVC070 07/06 Q1014
RJSN 190700Z 03003KT 9999 -RA FEW040 BKN050 OVC070 07/05 Q1016
RJSN 190600Z 06004KT 9999 -RA FEW040 BKN050 OVC070 08/05 Q1017
RJSN 190500Z VRB02KT 9999 -RA SCT050 OVC070 07/03 Q1018
RJSN 190400Z 04006KT 9999 SCT060 OVC080 07/02 Q1019
RJSN 190300Z 02004KT 9999 FEW060 BKN080 OVC100 07/02 Q1020
RJSN 190200Z VRB03KT 9999 FEW060 BKN080 OVC100 09/00 Q1021
RJSN 190100Z 14004KT 100V180 9999 FEW080 BKN100 OVC120 07/01 Q1022
RJSN 190000Z 19004KT 140V220 CAVOK 05/01 Q1023
RJSN 182300Z VRB02KT CAVOK 04/01 Q1024
RJSN 182200Z VRB01KT CAVOK 03/01 Q1024
RJSN 182110Z 00000KT CAVOK 02/01 Q1024 RMK A3025
RJSN 181200Z 15005KT 9999 FEW070 BKN/// 04/02 Q1027
RJSN 181100Z 15005KT 9999 FEW040 SCT070 BKN/// 05/03 Q1026
RJSN 181000Z 14004KT 9999 FEW030 SCT050 BKN/// 06/03 Q1026
RJSN 180900Z 17005KT 9999 FEW030 SCT050 BKN/// 06/03 Q1026
RJSN 180800Z 18005KT 9999 -SHRA FEW020 SCT030 08/03 Q1025
RJSN 180700Z 18005KT 150V220 9999 -SHRA FEW025 BKN040 08/03 Q1026
RJSN 180600Z 18006KT 150V210 9999 FEW030 BKN050 08/03 Q1025